createdAt,value
2022-12-03T00:02:13.794Z,98927.41
2022-12-03T00:04:40.525Z,98928.69
2022-12-03T00:07:06.993Z,98922.25
2022-12-03T00:09:34.341Z,98922.72
2022-12-03T00:12:00.812Z,98919.16
2022-12-03T00:14:27.342Z,98922.84
2022-12-03T00:16:53.898Z,98922.84
2022-12-03T00:19:20.502Z,98924.63
2022-12-03T00:21:47.065Z,98920.38
2022-12-03T00:24:13.530Z,98922.66
2022-12-03T00:26:40.121Z,98922.31
2022-12-03T00:29:06.577Z,98924.69
2022-12-03T00:31:33.123Z,98923.69
2022-12-03T00:42:09.406Z,98921.16
2022-12-03T00:44:36.677Z,98913.91
2022-12-03T00:47:10.130Z,98915.69
2022-12-03T00:49:36.688Z,98916.97
2022-12-03T00:52:03.249Z,98914.34
2022-12-03T00:54:32.130Z,98921.09
2022-12-03T00:56:59.171Z,98923.44
2022-12-03T00:59:25.841Z,98924.22
2022-12-03T01:01:52.719Z,98922.97
2022-12-03T01:04:19.397Z,98921.63
2022-12-03T01:06:46.153Z,98926.47
2022-12-03T01:09:12.686Z,98918.63
2022-12-03T01:11:39.297Z,98919.91
2022-12-03T01:14:11.038Z,98923.44
2022-12-03T01:16:38.132Z,98915.34
2022-12-03T01:19:06.238Z,98917.25
2022-12-03T01:21:33.306Z,98919.00
2022-12-03T01:24:00.369Z,98923.19
2022-12-03T01:26:26.806Z,98921.00
2022-12-03T01:28:53.434Z,98920.53
2022-12-03T01:31:58.643Z,98921.53
2022-12-03T01:34:26.069Z,98925.72
2022-12-03T01:36:52.726Z,98920.91
2022-12-03T01:39:19.577Z,98921.66
2022-12-03T01:41:48.290Z,98921.84
2022-12-03T01:44:32.856Z,98926.03
2022-12-03T01:47:02.845Z,98920.69
2022-12-03T01:49:40.687Z,98917.91
2022-12-03T01:52:11.925Z,98923.56
2022-12-03T01:54:43.107Z,98922.88
2022-12-03T01:57:20.100Z,98926.72
2022-12-03T01:59:47.499Z,98921.88
2022-12-03T02:02:28.149Z,98931.69
2022-12-03T02:04:55.504Z,98927.13
2022-12-03T02:07:31.667Z,98922.41
2022-12-03T02:10:01.459Z,98924.38
2022-12-03T02:12:38.445Z,98923.03
2022-12-03T02:15:07.140Z,98922.69
2022-12-03T02:17:34.020Z,98918.94
2022-12-03T02:20:01.679Z,98924.38
2022-12-03T02:22:31.149Z,98928.69
2022-12-03T02:25:21.277Z,98921.84
2022-12-03T02:27:48.414Z,98920.28
2022-12-03T02:30:18.792Z,98923.16
2022-12-03T02:32:49.658Z,98920.94
2022-12-03T02:35:23.290Z,98933.78
2022-12-03T02:37:53.708Z,98928.78
2022-12-03T02:40:27.262Z,98925.59
2022-12-03T02:42:58.644Z,98934.69
2022-12-03T02:45:32.543Z,98935.25
2022-12-03T02:48:10.001Z,98926.31
2022-12-03T02:50:41.404Z,98931.69
2022-12-03T02:53:14.445Z,98923.13
2022-12-03T02:55:41.796Z,98931.38
2022-12-03T02:58:09.703Z,98927.63
2022-12-03T03:00:37.268Z,98934.84
2022-12-03T03:03:06.401Z,98931.13
2022-12-03T03:05:35.304Z,98937.94
2022-12-03T03:08:02.724Z,98934.31
2022-12-03T03:10:30.838Z,98928.06
2022-12-03T03:12:57.585Z,98928.22
2022-12-03T03:15:25.182Z,98933.59
2022-12-03T03:17:51.991Z,98932.63
2022-12-03T03:20:24.433Z,98931.16
2022-12-03T03:22:50.880Z,98935.47
2022-12-03T03:25:21.202Z,98925.81
2022-12-03T03:27:47.861Z,98928.78
2022-12-03T03:30:14.788Z,98925.38
2022-12-03T03:32:42.612Z,98928.03
2022-12-03T03:35:10.779Z,98926.19
2022-12-03T03:37:38.212Z,98930.56
2022-12-03T03:40:05.308Z,98932.28
2022-12-03T03:42:31.882Z,98927.94
2022-12-03T03:44:58.560Z,98929.13
2022-12-03T03:47:25.750Z,98932.69
2022-12-03T03:49:53.002Z,98935.56
2022-12-03T03:52:20.566Z,98927.06
2022-12-03T03:54:47.385Z,98929.59
2022-12-03T03:57:14.477Z,98924.88
2022-12-03T03:59:41.431Z,98927.38
2022-12-03T04:02:17.781Z,98930.25
2022-12-03T04:04:44.534Z,98934.69
2022-12-03T04:07:13.240Z,98928.13
2022-12-03T04:09:39.759Z,98929.28
2022-12-03T04:12:24.843Z,98933.28
2022-12-03T04:14:51.713Z,98924.72
2022-12-03T04:17:18.508Z,98924.72
2022-12-03T04:19:45.069Z,98925.03
2022-12-03T04:22:30.162Z,98924.22
2022-12-03T04:25:16.609Z,98918.16
2022-12-03T04:28:02.171Z,98917.56
2022-12-03T04:30:28.659Z,98908.50
2022-12-03T04:33:13.705Z,98918.91
2022-12-03T04:35:42.814Z,98915.22
2022-12-03T04:38:14.852Z,98907.34
2022-12-03T04:41:04.991Z,98906.56
2022-12-03T04:43:55.218Z,98904.19
2022-12-03T04:46:22.184Z,98905.03
2022-12-03T04:48:48.858Z,98912.09
2022-12-03T04:51:15.383Z,98911.31
2022-12-03T04:53:46.058Z,98903.88
2022-12-03T04:56:12.948Z,98907.91
2022-12-03T04:58:39.451Z,98902.44
2022-12-03T05:01:06.046Z,98904.38
2022-12-03T05:03:32.649Z,98907.75
2022-12-03T05:05:59.154Z,98907.41
2022-12-03T05:08:25.723Z,98894.72
2022-12-03T05:10:52.152Z,98892.47
2022-12-03T05:13:18.581Z,98899.69
2022-12-03T05:15:45.017Z,98898.56
2022-12-03T05:18:11.526Z,98899.22
2022-12-03T05:20:49.795Z,98896.66
2022-12-03T05:23:19.420Z,98888.75
2022-12-03T05:25:45.923Z,98886.66
2022-12-03T05:28:12.414Z,98889.22
2022-12-03T05:30:38.992Z,98892.59
2022-12-03T05:33:05.667Z,98894.84
2022-12-03T05:35:32.224Z,98884.84
2022-12-03T05:37:58.765Z,98893.03
2022-12-03T05:40:25.308Z,98885.34
2022-12-03T05:42:54.604Z,98887.69
2022-12-03T05:45:22.491Z,98881.13
2022-12-03T05:47:48.927Z,98891.13
2022-12-03T05:50:15.489Z,98883.41
2022-12-03T05:52:41.895Z,98894.41
2022-12-03T05:55:09.211Z,98889.56
2022-12-03T05:57:35.779Z,98889.59
2022-12-03T06:00:02.368Z,98888.81
2022-12-03T06:02:28.951Z,98888.34
2022-12-03T06:04:55.986Z,98886.59
2022-12-03T06:07:22.631Z,98880.16
2022-12-03T06:09:49.277Z,98884.19
2022-12-03T06:12:16.394Z,98884.38
2022-12-03T06:14:42.936Z,98880.34
2022-12-03T06:17:09.479Z,98880.84
2022-12-03T06:19:36.039Z,98881.84
2022-12-03T06:22:02.522Z,98882.19
2022-12-03T06:24:28.927Z,98889.50
2022-12-03T06:26:55.643Z,98883.31
2022-12-03T06:29:22.127Z,98882.97
2022-12-03T06:31:48.623Z,98886.28
2022-12-03T06:34:15.116Z,98887.47
2022-12-03T06:36:41.551Z,98884.41
2022-12-03T06:39:08.070Z,98895.59
2022-12-03T06:41:34.650Z,98890.41
2022-12-03T06:44:01.070Z,98902.59
2022-12-03T06:46:27.577Z,98902.97
2022-12-03T06:48:54.070Z,98908.91
2022-12-03T06:51:20.558Z,98918.31
2022-12-03T06:53:46.966Z,98913.94
2022-12-03T06:56:13.399Z,98917.94
2022-12-03T06:58:39.776Z,98922.56
2022-12-03T07:01:06.195Z,98925.06
2022-12-03T07:03:32.668Z,98937.91
2022-12-03T07:05:59.044Z,98937.22
2022-12-03T07:08:25.473Z,98939.97
2022-12-03T07:10:51.942Z,98938.03
2022-12-03T07:13:18.373Z,98933.59
2022-12-03T07:15:45.089Z,98941.84
2022-12-03T07:18:14.828Z,98945.38
2022-12-03T07:20:41.447Z,98941.19
2022-12-03T07:23:08.711Z,98937.31
2022-12-03T07:25:35.543Z,98934.44
2022-12-03T07:28:02.032Z,98934.91
2022-12-03T07:30:28.627Z,98929.28
2022-12-03T07:32:55.488Z,98932.84
2022-12-03T07:35:22.032Z,98932.34
2022-12-03T07:37:48.589Z,98934.75
2022-12-03T07:40:15.220Z,98927.19
2022-12-03T07:42:42.772Z,98930.53
2022-12-03T07:45:10.163Z,98937.31
2022-12-03T07:47:36.731Z,98935.88
2022-12-03T07:50:03.366Z,98935.38
2022-12-03T07:52:30.164Z,98936.66
2022-12-03T07:55:04.338Z,98928.78
2022-12-03T07:57:30.860Z,98936.50
2022-12-03T07:59:57.483Z,98934.25
2022-12-03T08:02:24.150Z,98927.97
2022-12-03T08:04:50.952Z,98923.13
2022-12-03T08:07:18.026Z,98927.31
2022-12-03T08:09:44.806Z,98928.22
2022-12-03T08:12:50.690Z,98924.72
2022-12-03T08:15:20.171Z,98928.47
2022-12-03T08:17:53.521Z,98919.41
2022-12-03T08:20:25.532Z,98922.97
2022-12-03T08:22:54.380Z,98913.91
2022-12-03T08:25:30.955Z,98925.22
2022-12-03T08:28:21.552Z,98919.91
2022-12-03T08:31:32.901Z,98916.53
2022-12-03T08:34:17.620Z,98928.63
2022-12-03T08:36:45.134Z,98915.22
2022-12-03T08:39:28.172Z,98921.50
2022-12-03T08:42:18.270Z,98917.59
2022-12-03T08:44:44.963Z,98913.13
2022-12-03T08:47:23.299Z,98902.50
2022-12-03T08:50:17.361Z,98913.56
2022-12-03T08:52:43.964Z,98905.69
2022-12-03T08:55:33.080Z,98906.94
2022-12-03T08:57:59.769Z,98897.44
2022-12-03T09:00:26.626Z,98897.13
2022-12-03T09:02:58.952Z,98894.41
2022-12-03T09:05:32.485Z,98890.50
2022-12-03T09:07:59.228Z,98894.19
2022-12-03T09:10:25.847Z,98891.94
2022-12-03T09:12:52.695Z,98902.25
2022-12-03T09:15:19.444Z,98910.75
2022-12-03T09:17:46.198Z,98906.59
2022-12-03T09:20:13.062Z,98905.28
2022-12-03T09:22:39.761Z,98912.00
2022-12-03T09:25:07.028Z,98907.66
2022-12-03T09:27:33.758Z,98919.09
2022-12-03T09:30:00.603Z,98923.38
2022-12-03T09:32:27.724Z,98918.06
2022-12-03T09:34:54.959Z,98922.94
2022-12-03T09:37:22.449Z,98921.97
2022-12-03T09:39:49.495Z,98912.78
2022-12-03T09:42:16.668Z,98922.78
2022-12-03T09:44:44.290Z,98911.81
2022-12-03T09:47:11.360Z,98906.47
2022-12-03T09:49:39.154Z,98911.19
2022-12-03T09:52:07.255Z,98907.28
2022-12-03T09:54:34.640Z,98912.78
2022-12-03T09:57:04.346Z,98911.13
2022-12-03T09:59:35.010Z,98911.28
2022-12-03T10:02:02.735Z,98901.94
2022-12-03T10:04:30.061Z,98904.19
2022-12-03T10:06:58.552Z,98904.31
2022-12-03T10:09:30.194Z,98903.19
2022-12-03T10:11:59.208Z,98901.50
2022-12-03T10:14:26.996Z,98895.88
2022-12-03T10:16:54.200Z,98888.44
2022-12-03T10:19:27.751Z,98890.50
2022-12-03T10:21:59.249Z,98888.09
2022-12-03T10:24:34.866Z,98885.63
2022-12-03T10:27:32.822Z,98883.22
2022-12-03T10:30:04.838Z,98880.63
2022-12-03T10:32:44.375Z,98880.06
2022-12-03T10:35:15.662Z,98878.28
2022-12-03T10:37:58.021Z,98858.97
2022-12-03T10:40:27.921Z,98845.09
2022-12-03T10:43:14.346Z,98842.00
2022-12-03T10:45:42.969Z,98832.94
2022-12-03T10:48:21.904Z,98837.78
2022-12-03T10:50:57.375Z,98847.56
2022-12-03T10:53:28.822Z,98839.19
2022-12-03T10:55:59.889Z,98836.97
2022-12-03T10:58:31.447Z,98828.78
2022-12-03T11:01:01.264Z,98824.75
2022-12-03T11:03:30.894Z,98825.47
2022-12-03T11:06:00.799Z,98828.25
2022-12-03T11:08:31.854Z,98832.34
2022-12-03T11:11:04.751Z,98829.38
2022-12-03T11:13:34.193Z,98833.22
2022-12-03T11:16:02.655Z,98828.97
2022-12-03T11:18:38.362Z,98821.59
2022-12-03T11:21:05.359Z,98825.44
2022-12-03T11:23:47.049Z,98818.22
2022-12-03T11:26:28.150Z,98823.91
2022-12-03T11:28:55.651Z,98817.94
2022-12-03T11:31:39.129Z,98813.47
2022-12-03T11:34:20.984Z,98822.91
2022-12-03T11:37:10.130Z,98806.41
2022-12-03T11:39:52.453Z,98805.81
2022-12-03T11:42:28.478Z,98801.81
2022-12-03T11:45:04.911Z,98799.69
2022-12-03T11:48:18.776Z,98793.19
2022-12-03T11:50:52.302Z,98800.78
2022-12-03T11:53:24.997Z,98800.59
2022-12-03T11:56:09.095Z,98792.38
2022-12-03T11:58:38.407Z,98788.66
2022-12-03T12:01:06.916Z,98793.81
2022-12-03T12:03:45.688Z,98777.50
2022-12-03T12:06:15.669Z,98780.72
2022-12-03T12:08:56.381Z,98780.38
2022-12-03T12:11:30.126Z,98780.97
2022-12-03T12:14:14.567Z,98778.03
2022-12-03T12:16:50.747Z,98784.38
2022-12-03T12:19:38.060Z,98781.78
2022-12-03T12:22:26.674Z,98779.03
2022-12-03T12:24:57.441Z,98782.59
2022-12-03T12:27:35.512Z,98771.91
2022-12-03T12:30:14.021Z,98774.41
2022-12-03T12:32:45.956Z,98767.09
2022-12-03T12:35:25.851Z,98766.47
2022-12-03T12:37:59.636Z,98758.34
2022-12-03T12:40:32.252Z,98770.41
2022-12-03T12:43:15.506Z,98759.88
2022-12-03T12:45:46.259Z,98761.09
2022-12-03T12:48:20.348Z,98766.47
2022-12-03T12:50:52.939Z,98773.31
2022-12-03T12:53:24.870Z,98765.31
2022-12-03T12:55:56.142Z,98762.66
2022-12-03T12:58:22.999Z,98765.19
2022-12-03T13:00:57.155Z,98760.13
2022-12-03T13:03:28.262Z,98757.38
2022-12-03T13:05:57.631Z,98762.47
2022-12-03T13:08:27.988Z,98757.28
2022-12-03T13:10:57.567Z,98747.41
2022-12-03T13:13:44.220Z,98753.22
2022-12-03T13:16:38.023Z,98743.84
2022-12-03T13:19:16.316Z,98734.47
2022-12-03T13:21:44.442Z,98740.97
2022-12-03T13:24:29.330Z,98745.78
2022-12-03T13:26:56.645Z,98733.91
2022-12-03T13:29:23.875Z,98731.22
2022-12-03T13:31:55.631Z,98735.31
2022-12-03T13:34:25.674Z,98735.47
2022-12-03T13:39:46.505Z,98727.66
2022-12-03T13:42:50.404Z,98729.78
2022-12-03T13:45:29.110Z,98722.22
2022-12-03T13:47:58.282Z,98727.03
2022-12-03T13:50:37.178Z,98728.38
2022-12-03T13:53:09.444Z,98730.22
2022-12-03T13:55:39.974Z,98725.75
2022-12-03T13:58:06.437Z,98735.88
2022-12-03T14:00:32.969Z,98727.44
2022-12-03T14:02:59.453Z,98730.22
2022-12-03T14:05:25.935Z,98733.59
2022-12-03T14:07:58.026Z,98717.00
2022-12-03T14:10:24.651Z,98727.22
2022-12-03T14:12:51.205Z,98723.19
2022-12-03T14:15:18.066Z,98722.66
2022-12-03T14:17:44.559Z,98730.31
2022-12-03T14:20:11.784Z,98729.34
2022-12-03T14:22:39.136Z,98723.00
2022-12-03T14:25:06.990Z,98721.88
2022-12-03T14:27:34.228Z,98722.13
2022-12-03T14:30:00.846Z,98722.84
2022-12-03T14:32:27.375Z,98725.34
2022-12-03T14:34:53.796Z,98721.69
2022-12-03T14:37:20.686Z,98725.78
2022-12-03T14:39:47.103Z,98727.28
2022-12-03T14:42:13.748Z,98730.88
2022-12-03T14:44:46.491Z,98737.53
2022-12-03T14:47:16.297Z,98736.53
2022-12-03T14:49:42.983Z,98726.19
2022-12-03T14:52:12.570Z,98727.38
2022-12-03T14:54:42.486Z,98722.22
2022-12-03T14:57:11.475Z,98731.31
2022-12-03T14:59:41.675Z,98731.63
2022-12-03T15:02:09.358Z,98721.66
2022-12-03T15:04:36.211Z,98726.81
2022-12-03T15:07:03.072Z,98722.84
2022-12-03T15:09:32.831Z,98720.34
2022-12-03T15:12:00.094Z,98726.63
2022-12-03T15:14:27.296Z,98729.63
2022-12-03T15:16:53.970Z,98734.59
2022-12-03T15:19:20.627Z,98730.00
2022-12-03T15:21:52.559Z,98735.88
2022-12-03T15:24:19.445Z,98733.22
2022-12-03T15:26:46.459Z,98728.88
2022-12-03T15:29:13.697Z,98726.81
2022-12-03T15:31:44.362Z,98723.44
2022-12-03T15:34:11.114Z,98724.69
2022-12-03T15:36:37.884Z,98714.91
2022-12-03T15:39:07.371Z,98717.25
2022-12-03T15:41:34.077Z,98715.47
2022-12-03T15:44:02.249Z,98723.00
2022-12-03T15:46:29.740Z,98720.94
2022-12-03T15:48:56.486Z,98725.44
2022-12-03T15:51:23.830Z,98735.09
2022-12-03T15:53:50.351Z,98739.34
2022-12-03T15:56:16.944Z,98730.03
2022-12-03T15:58:44.042Z,98736.88
2022-12-03T16:01:13.346Z,98734.13
2022-12-03T16:03:42.725Z,98731.72
2022-12-03T16:06:09.694Z,98724.25
2022-12-03T16:08:36.275Z,98725.22
2022-12-03T16:11:20.632Z,98724.88
2022-12-03T16:13:47.217Z,98728.16
2022-12-03T16:16:13.904Z,98738.22
2022-12-03T16:18:40.621Z,98736.31
2022-12-03T16:21:07.197Z,98743.94
2022-12-03T16:23:34.128Z,98734.25
2022-12-03T16:26:00.529Z,98741.31
2022-12-03T16:28:27.134Z,98739.50
2022-12-03T16:30:53.589Z,98736.72
2022-12-03T16:33:25.624Z,98745.53
2022-12-03T16:35:54.057Z,98742.81
2022-12-03T16:38:21.555Z,98744.41
2022-12-03T16:40:48.579Z,98749.56
2022-12-03T16:43:15.242Z,98743.31
2022-12-03T16:46:01.096Z,98740.81
2022-12-03T16:48:30.825Z,98736.25
2022-12-03T16:50:59.874Z,98740.63
2022-12-03T16:53:26.945Z,98738.38
2022-12-03T16:55:53.805Z,98738.75
2022-12-03T16:58:21.771Z,98737.13
2022-12-03T17:00:51.372Z,98732.63
2022-12-03T17:03:20.993Z,98737.78
2022-12-03T17:05:49.254Z,98731.81
2022-12-03T17:08:16.933Z,98731.09
2022-12-03T17:10:46.819Z,98723.34
2022-12-03T17:13:14.253Z,98723.38
2022-12-03T17:15:41.947Z,98725.72
2022-12-03T17:18:09.448Z,98722.81
2022-12-03T17:20:37.976Z,98725.72
2022-12-03T17:23:05.203Z,98726.19
2022-12-03T17:25:37.600Z,98718.41
2022-12-03T17:30:46.175Z,98715.16
2022-12-03T17:33:12.882Z,98714.16
2022-12-03T17:35:43.385Z,98711.06
2022-12-03T17:38:09.999Z,98706.44
2022-12-03T17:40:36.936Z,98711.41
2022-12-03T17:43:03.771Z,98707.53
2022-12-03T17:45:30.386Z,98700.94
2022-12-03T17:47:56.932Z,98700.03
2022-12-03T17:50:23.680Z,98702.88
2022-12-03T17:52:50.582Z,98692.66
2022-12-03T17:55:26.466Z,98687.50
2022-12-03T17:58:08.165Z,98690.41
2022-12-03T18:00:34.952Z,98680.19
2022-12-03T18:03:01.634Z,98686.09
2022-12-03T18:05:30.887Z,98684.03
2022-12-03T18:07:57.651Z,98681.47
2022-12-03T18:10:24.412Z,98682.72
2022-12-03T18:12:58.288Z,98691.34
2022-12-03T18:15:27.969Z,98690.16
2022-12-03T18:17:58.094Z,98690.44
2022-12-03T18:20:24.643Z,98685.00
2022-12-03T18:22:52.114Z,98693.72
2022-12-03T18:25:22.953Z,98694.25
2022-12-03T18:27:49.630Z,98699.00
2022-12-03T18:30:20.294Z,98699.97
2022-12-03T18:32:47.868Z,98699.00
2022-12-03T18:35:14.576Z,98695.63
2022-12-03T18:37:41.539Z,98690.03
2022-12-03T18:40:16.351Z,98693.75
2022-12-03T18:42:42.879Z,98685.53
2022-12-03T18:45:13.227Z,98687.56
2022-12-03T18:47:40.041Z,98681.66
2022-12-03T18:50:07.918Z,98679.53
2022-12-03T18:52:39.685Z,98681.66
2022-12-03T18:55:07.403Z,98686.44
2022-12-03T18:57:34.087Z,98682.53
2022-12-03T19:00:13.056Z,98681.06
2022-12-03T19:05:27.334Z,98672.03
2022-12-03T19:07:55.604Z,98667.91
2022-12-03T19:10:23.082Z,98669.44
2022-12-03T19:12:49.669Z,98668.66
2022-12-03T19:15:19.346Z,98676.81
2022-12-03T19:17:53.212Z,98678.50
2022-12-03T19:20:19.800Z,98672.44
2022-12-03T19:22:46.415Z,98665.97
2022-12-03T19:25:13.072Z,98668.78
2022-12-03T19:27:42.693Z,98664.50
2022-12-03T19:30:10.775Z,98672.84
2022-12-03T19:32:37.376Z,98664.25
2022-12-03T19:35:05.325Z,98669.78
2022-12-03T19:37:35.830Z,98661.06
2022-12-03T19:40:02.671Z,98656.53
2022-12-03T19:42:31.070Z,98658.25
2022-12-03T19:44:57.622Z,98658.41
2022-12-03T19:47:25.625Z,98649.25
2022-12-03T19:49:55.638Z,98651.56
2022-12-03T19:52:22.554Z,98648.03
2022-12-03T19:54:49.199Z,98644.25
2022-12-03T19:57:22.891Z,98647.28
2022-12-03T19:59:50.267Z,98648.63
2022-12-03T20:02:17.196Z,98652.06
2022-12-03T20:04:44.245Z,98648.00
2022-12-03T20:07:11.055Z,98634.81
2022-12-03T20:09:37.948Z,98641.31
2022-12-03T20:12:04.846Z,98635.69
2022-12-03T20:14:31.744Z,98635.69
2022-12-03T20:16:58.661Z,98632.69
2022-12-03T20:19:25.532Z,98632.69
2022-12-03T20:21:53.708Z,98640.34
2022-12-03T20:24:22.121Z,98635.53
2022-12-03T20:26:49.689Z,98641.75
2022-12-03T20:29:16.717Z,98637.75
2022-12-03T20:31:44.339Z,98642.91
2022-12-03T20:34:11.359Z,98641.75
2022-12-03T20:36:39.350Z,98642.09
2022-12-03T20:39:08.129Z,98642.56
2022-12-03T20:41:36.262Z,98644.59
2022-12-03T20:44:03.484Z,98643.09
2022-12-03T20:46:31.328Z,98640.81
2022-12-03T20:48:59.124Z,98648.97
2022-12-03T20:51:30.114Z,98639.56
2022-12-03T20:53:58.335Z,98635.53
2022-12-03T20:56:28.180Z,98633.97
2022-12-03T20:58:54.836Z,98629.25
2022-12-03T21:01:24.506Z,98628.72
2022-12-03T21:03:52.534Z,98622.56
2022-12-03T21:06:20.637Z,98623.91
2022-12-03T21:08:48.455Z,98621.13
2022-12-03T21:11:18.139Z,98613.22
2022-12-03T21:13:46.363Z,98621.13
2022-12-03T21:16:34.168Z,98621.59
2022-12-03T21:19:06.959Z,98624.78
2022-12-03T21:21:35.123Z,98620.59
2022-12-03T21:24:01.780Z,98616.44
2022-12-03T21:26:28.538Z,98615.19
2022-12-03T21:28:55.400Z,98610.47
2022-12-03T21:31:25.883Z,98606.72
2022-12-03T21:33:54.508Z,98606.19
2022-12-03T21:36:21.349Z,98601.75
2022-12-03T21:38:48.281Z,98604.94
2022-12-03T21:41:14.999Z,98609.31
2022-12-03T21:43:42.745Z,98608.94
2022-12-03T21:47:09.746Z,98602.19
2022-12-03T21:49:00.130Z,98604.41
2022-12-03T21:51:47.149Z,98593.84
2022-12-03T21:54:14.203Z,98599.53
2022-12-03T21:56:40.736Z,98606.91
2022-12-03T21:59:10.271Z,98599.63
2022-12-03T22:01:38.920Z,98590.72
2022-12-03T22:04:08.042Z,98577.81
2022-12-03T22:06:34.738Z,98587.16
2022-12-03T22:09:01.673Z,98587.44
2022-12-03T22:11:28.381Z,98596.25
2022-12-03T22:13:59.133Z,98597.66
2022-12-03T22:16:26.416Z,98595.88
2022-12-03T22:18:54.647Z,98595.06
2022-12-03T22:21:22.029Z,98602.09
2022-12-03T22:23:50.078Z,98592.22
2022-12-03T22:26:19.537Z,98586.91
2022-12-03T22:28:49.570Z,98595.78
2022-12-03T22:31:20.558Z,98576.31
2022-12-03T22:33:50.062Z,98586.81
2022-12-03T22:36:21.987Z,98574.81
2022-12-03T22:38:50.406Z,98582.56
2022-12-03T22:41:17.731Z,98578.53
2022-12-03T22:43:46.126Z,98562.88
2022-12-03T22:46:13.794Z,98549.78
2022-12-03T22:48:44.997Z,98551.41
2022-12-03T22:51:23.985Z,98551.75
2022-12-03T22:53:59.631Z,98552.19
2022-12-03T22:56:28.836Z,98543.31
2022-12-03T22:58:58.745Z,98548.47
2022-12-03T23:01:31.466Z,98551.13
2022-12-03T23:03:59.019Z,98543.31
2022-12-03T23:06:26.917Z,98541.34
2022-12-03T23:08:54.249Z,98528.06
2022-12-03T23:11:21.060Z,98536.81
2022-12-03T23:13:47.896Z,98536.56
2022-12-03T23:16:17.948Z,98544.19
2022-12-03T23:18:45.090Z,98542.25
2022-12-03T23:21:22.789Z,98551.41
2022-12-03T23:23:54.126Z,98550.25
2022-12-03T23:26:21.214Z,98542.94
2022-12-03T23:28:48.463Z,98547.47
2022-12-03T23:31:20.990Z,98548.38
2022-12-03T23:33:48.629Z,98547.56
2022-12-03T23:36:24.065Z,98551.94
2022-12-03T23:38:50.781Z,98558.50
2022-12-03T23:41:20.078Z,98551.75
2022-12-03T23:43:47.360Z,98544.63
2022-12-03T23:46:21.225Z,98545.59
2022-12-03T23:48:48.214Z,98538.06
2022-12-03T23:51:18.664Z,98542.59
2022-12-03T23:53:46.310Z,98537.63
2022-12-03T23:56:19.124Z,98538.75
2022-12-03T23:58:46.961Z,98534.25
